sensor_id;sensor_type;location;lat;lon;timestamp;pressure;altitude;pressure_sealevel;temperature;humidity
5283;BME280;15376;48.540;9.268;2023-11-19T00:00:50;97474.44;;;7.83;100.00
5283;BME280;15376;48.540;9.268;2023-11-19T00:03:16;97492.94;;;7.91;100.00
5283;BME280;15376;48.540;9.268;2023-11-19T00:05:41;97476.25;;;7.74;100.00
5283;BME280;15376;48.540;9.268;2023-11-19T00:08:06;97503.16;;;7.78;100.00
5283;BME280;15376;48.540;9.268;2023-11-19T00:10:33;97493.09;;;7.73;100.00
5283;BME280;15376;48.540;9.268;2023-11-19T00:12:59;97495.72;;;7.73;100.00
5283;BME280;15376;48.540;9.268;2023-11-19T00:15:24;97497.56;;;7.73;100.00
5283;BME280;15376;48.540;9.268;2023-11-19T00:17:50;97495.06;;;7.71;100.00
5283;BME280;15376;48.540;9.268;2023-11-19T00:20:17;97492.59;;;7.69;100.00
5283;BME280;15376;48.540;9.268;2023-11-19T00:22:43;97486.31;;;7.70;100.00
5283;BME280;15376;48.540;9.268;2023-11-19T00:25:09;97483.50;;;7.72;100.00
5283;BME280;15376;48.540;9.268;2023-11-19T00:27:35;97471.13;;;7.73;100.00
5283;BME280;15376;48.540;9.268;2023-11-19T00:30:01;97443.72;;;7.57;100.00
5283;BME280;15376;48.540;9.268;2023-11-19T00:32:27;97471.59;;;7.68;100.00
5283;BME280;15376;48.540;9.268;2023-11-19T00:34:52;97459.38;;;7.67;100.00
5283;BME280;15376;48.540;9.268;2023-11-19T00:37:17;97457.72;;;7.66;100.00
5283;BME280;15376;48.540;9.268;2023-11-19T00:39:43;97466.81;;;7.72;100.00
5283;BME280;15376;48.540;9.268;2023-11-19T00:42:09;97475.09;;;7.77;100.00
5283;BME280;15376;48.540;9.268;2023-11-19T00:44:35;97471.44;;;7.78;100.00
5283;BME280;15376;48.540;9.268;2023-11-19T00:47:01;97454.28;;;7.74;100.00
5283;BME280;15376;48.540;9.268;2023-11-19T00:49:26;97460.53;;;7.89;100.00
5283;BME280;15376;48.540;9.268;2023-11-19T00:51:51;97456.53;;;8.01;100.00
5283;BME280;15376;48.540;9.268;2023-11-19T00:54:17;97464.63;;;8.08;100.00
5283;BME280;15376;48.540;9.268;2023-11-19T00:56:42;97458.84;;;8.12;100.00
5283;BME280;15376;48.540;9.268;2023-11-19T00:59:07;97450.59;;;8.15;100.00
5283;BME280;15376;48.540;9.268;2023-11-19T01:01:33;97447.28;;;8.13;100.00
5283;BME280;15376;48.540;9.268;2023-11-19T01:03:59;97435.72;;;8.06;100.00
5283;BME280;15376;48.540;9.268;2023-11-19T01:06:31;97440.00;;;8.15;100.00
5283;BME280;15376;48.540;9.268;2023-11-19T01:08:56;97437.69;;;8.20;100.00
5283;BME280;15376;48.540;9.268;2023-11-19T01:11:23;97428.75;;;8.21;100.00
5283;BME280;15376;48.540;9.268;2023-11-19T01:13:49;97438.34;;;8.22;100.00
5283;BME280;15376;48.540;9.268;2023-11-19T01:16:15;97434.53;;;8.17;100.00
5283;BME280;15376;48.540;9.268;2023-11-19T01:18:41;97439.34;;;8.21;100.00
5283;BME280;15376;48.540;9.268;2023-11-19T01:21:06;97437.66;;;8.28;100.00
5283;BME280;15376;48.540;9.268;2023-11-19T01:23:31;97441.78;;;8.31;100.00
5283;BME280;15376;48.540;9.268;2023-11-19T01:25:58;97440.66;;;8.33;100.00
5283;BME280;15376;48.540;9.268;2023-11-19T01:28:23;97431.91;;;8.33;100.00
5283;BME280;15376;48.540;9.268;2023-11-19T01:30:50;97426.09;;;8.38;100.00
5283;BME280;15376;48.540;9.268;2023-11-19T01:33:16;97422.25;;;8.40;100.00
5283;BME280;15376;48.540;9.268;2023-11-19T01:35:41;97386.41;;;8.29;100.00
5283;BME280;15376;48.540;9.268;2023-11-19T01:38:06;97413.78;;;8.53;100.00
5283;BME280;15376;48.540;9.268;2023-11-19T01:40:33;97339.81;;;8.20;100.00
5283;BME280;15376;48.540;9.268;2023-11-19T01:42:59;97392.09;;;8.57;100.00
5283;BME280;15376;48.540;9.268;2023-11-19T01:45:28;97385.16;;;8.56;100.00
5283;BME280;15376;48.540;9.268;2023-11-19T01:47:55;97382.50;;;8.56;100.00
5283;BME280;15376;48.540;9.268;2023-11-19T01:50:21;97373.91;;;8.54;100.00
5283;BME280;15376;48.540;9.268;2023-11-19T01:52:47;97389.09;;;8.60;100.00
5283;BME280;15376;48.540;9.268;2023-11-19T01:55:13;97360.72;;;8.46;100.00
5283;BME280;15376;48.540;9.268;2023-11-19T01:57:39;97386.94;;;8.64;100.00
5283;BME280;15376;48.540;9.268;2023-11-19T02:00:06;97383.94;;;8.67;100.00
5283;BME280;15376;48.540;9.268;2023-11-19T02:02:32;97394.19;;;8.70;100.00
5283;BME280;15376;48.540;9.268;2023-11-19T02:04:58;97358.03;;;8.54;100.00
5283;BME280;15376;48.540;9.268;2023-11-19T02:07:24;97390.72;;;8.69;100.00
5283;BME280;15376;48.540;9.268;2023-11-19T02:09:49;97393.84;;;8.73;100.00
5283;BME280;15376;48.540;9.268;2023-11-19T02:12:14;97387.38;;;8.76;100.00
5283;BME280;15376;48.540;9.268;2023-11-19T02:14:40;97361.13;;;8.66;100.00
5283;BME280;15376;48.540;9.268;2023-11-19T02:17:05;97378.19;;;8.86;100.00
5283;BME280;15376;48.540;9.268;2023-11-19T02:19:31;97344.91;;;8.69;100.00
5283;BME280;15376;48.540;9.268;2023-11-19T02:21:56;97381.50;;;8.88;100.00
5283;BME280;15376;48.540;9.268;2023-11-19T02:24:22;97381.81;;;8.93;100.00
5283;BME280;15376;48.540;9.268;2023-11-19T02:27:02;97386.09;;;8.94;100.00
5283;BME280;15376;48.540;9.268;2023-11-19T02:29:32;97377.81;;;8.97;100.00
5283;BME280;15376;48.540;9.268;2023-11-19T02:31:57;97284.50;;;8.42;100.00
5283;BME280;15376;48.540;9.268;2023-11-19T02:34:23;97351.72;;;8.86;100.00
5283;BME280;15376;48.540;9.268;2023-11-19T02:36:48;97375.75;;;9.08;100.00
5283;BME280;15376;48.540;9.268;2023-11-19T02:39:15;97370.47;;;9.08;100.00
5283;BME280;15376;48.540;9.268;2023-11-19T02:41:45;97375.75;;;9.08;100.00
5283;BME280;15376;48.540;9.268;2023-11-19T02:44:10;97364.81;;;9.11;100.00
5283;BME280;15376;48.540;9.268;2023-11-19T02:46:37;97360.50;;;9.10;100.00
5283;BME280;15376;48.540;9.268;2023-11-19T02:49:02;97364.47;;;9.14;100.00
5283;BME280;15376;48.540;9.268;2023-11-19T02:51:27;97368.75;;;9.15;100.00
5283;BME280;15376;48.540;9.268;2023-11-19T02:53:53;97373.06;;;9.16;100.00
5283;BME280;15376;48.540;9.268;2023-11-19T02:56:18;97360.81;;;9.15;100.00
5283;BME280;15376;48.540;9.268;2023-11-19T02:58:54;97378.00;;;9.19;100.00
5283;BME280;15376;48.540;9.268;2023-11-19T03:01:24;97369.59;;;9.15;100.00
5283;BME280;15376;48.540;9.268;2023-11-19T03:03:54;97376.81;;;9.21;100.00
5283;BME280;15376;48.540;9.268;2023-11-19T03:06:20;97381.28;;;9.21;100.00
5283;BME280;15376;48.540;9.268;2023-11-19T03:08:47;97376.28;;;9.26;100.00
5283;BME280;15376;48.540;9.268;2023-11-19T03:11:13;97371.97;;;9.25;100.00
5283;BME280;15376;48.540;9.268;2023-11-19T03:13:39;97376.56;;;9.31;100.00
5283;BME280;15376;48.540;9.268;2023-11-19T03:16:04;97381.88;;;9.31;100.00
5283;BME280;15376;48.540;9.268;2023-11-19T03:18:30;97383.88;;;9.29;100.00
5283;BME280;15376;48.540;9.268;2023-11-19T03:20:55;97385.03;;;9.26;100.00
5283;BME280;15376;48.540;9.268;2023-11-19T03:23:20;97385.53;;;9.30;100.00
5283;BME280;15376;48.540;9.268;2023-11-19T03:25:46;97392.47;;;9.31;100.00
5283;BME280;15376;48.540;9.268;2023-11-19T03:28:11;97380.88;;;9.32;100.00
5283;BME280;15376;48.540;9.268;2023-11-19T03:30:36;97383.16;;;9.35;100.00
5283;BME280;15376;48.540;9.268;2023-11-19T03:33:02;97395.06;;;9.39;100.00
5283;BME280;15376;48.540;9.268;2023-11-19T03:35:28;97390.41;;;9.41;100.00
5283;BME280;15376;48.540;9.268;2023-11-19T03:37:53;97383.16;;;9.35;100.00
5283;BME280;15376;48.540;9.268;2023-11-19T03:40:19;97384.47;;;9.39;100.00
5283;BME280;15376;48.540;9.268;2023-11-19T03:42:45;97363.13;;;9.32;100.00
5283;BME280;15376;48.540;9.268;2023-11-19T03:45:11;97370.56;;;9.37;100.00
5283;BME280;15376;48.540;9.268;2023-11-19T03:47:37;97385.75;;;9.43;100.00
5283;BME280;15376;48.540;9.268;2023-11-19T03:50:03;97384.03;;;9.50;100.00
5283;BME280;15376;48.540;9.268;2023-11-19T03:52:28;97369.31;;;9.48;100.00
5283;BME280;15376;48.540;9.268;2023-11-19T03:54:57;97319.59;;;9.12;100.00
5283;BME280;15376;48.540;9.268;2023-11-19T03:57:23;97376.75;;;9.52;100.00
5283;BME280;15376;48.540;9.268;2023-11-19T03:59:48;97353.38;;;9.33;100.00
5283;BME280;15376;48.540;9.268;2023-11-19T04:02:14;97378.75;;;9.50;100.00
5283;BME280;15376;48.540;9.268;2023-11-19T04:04:39;97354.84;;;9.35;100.00
5283;BME280;15376;48.540;9.268;2023-11-19T04:07:05;97378.91;;;9.49;100.00
5283;BME280;15376;48.540;9.268;2023-11-19T04:09:31;97346.78;;;9.29;100.00
5283;BME280;15376;48.540;9.268;2023-11-19T04:11:58;97379.41;;;9.52;100.00
5283;BME280;15376;48.540;9.268;2023-11-19T04:14:24;97385.69;;;9.51;100.00
5283;BME280;15376;48.540;9.268;2023-11-19T04:16:49;97375.03;;;9.59;100.00
5283;BME280;15376;48.540;9.268;2023-11-19T04:19:16;97376.66;;;9.60;100.00
5283;BME280;15376;48.540;9.268;2023-11-19T04:21:41;97361.13;;;9.57;100.00
5283;BME280;15376;48.540;9.268;2023-11-19T04:24:10;97361.56;;;9.61;100.00
5283;BME280;15376;48.540;9.268;2023-11-19T04:26:42;97378.28;;;9.61;100.00
5283;BME280;15376;48.540;9.268;2023-11-19T04:29:11;97378.28;;;9.61;100.00
5283;BME280;15376;48.540;9.268;2023-11-19T04:31:36;97378.22;;;9.55;100.00
5283;BME280;15376;48.540;9.268;2023-11-19T04:34:02;97375.47;;;9.63;100.00
5283;BME280;15376;48.540;9.268;2023-11-19T04:36:27;97376.66;;;9.60;100.00
5283;BME280;15376;48.540;9.268;2023-11-19T04:38:54;97376.09;;;9.65;100.00
5283;BME280;15376;48.540;9.268;2023-11-19T04:41:20;97389.84;;;9.68;100.00
5283;BME280;15376;48.540;9.268;2023-11-19T04:43:45;97394.34;;;9.83;100.00
5283;BME280;15376;48.540;9.268;2023-11-19T04:46:10;97396.44;;;9.73;100.00
5283;BME280;15376;48.540;9.268;2023-11-19T04:48:36;97395.66;;;9.64;100.00
5283;BME280;15376;48.540;9.268;2023-11-19T04:51:05;97391.84;;;9.66;100.00
5283;BME280;15376;48.540;9.268;2023-11-19T04:53:30;97406.69;;;9.76;100.00
5283;BME280;15376;48.540;9.268;2023-11-19T04:55:56;97405.03;;;9.75;100.00
5283;BME280;15376;48.540;9.268;2023-11-19T04:58:21;97401.84;;;9.79;100.00
5283;BME280;15376;48.540;9.268;2023-11-19T05:00:46;97386.47;;;9.75;100.00
5283;BME280;15376;48.540;9.268;2023-11-19T05:03:12;97366.25;;;9.74;100.00
5283;BME280;15376;48.540;9.268;2023-11-19T05:05:37;97388.03;;;9.84;100.00
5283;BME280;15376;48.540;9.268;2023-11-19T05:08:02;97374.28;;;9.65;100.00
5283;BME280;15376;48.540;9.268;2023-11-19T05:10:28;97401.38;;;9.76;100.00
5283;BME280;15376;48.540;9.268;2023-11-19T05:12:53;97397.81;;;9.83;100.00
5283;BME280;15376;48.540;9.268;2023-11-19T05:15:21;97400.59;;;9.90;100.00
5283;BME280;15376;48.540;9.268;2023-11-19T05:17:46;97408.91;;;9.87;100.00
5283;BME280;15376;48.540;9.268;2023-11-19T05:20:11;97406.72;;;9.90;100.00
5283;BME280;15376;48.540;9.268;2023-11-19T05:22:41;97388.03;;;9.84;100.00
5283;BME280;15376;48.540;9.268;2023-11-19T05:25:07;97374.50;;;9.79;100.00
5283;BME280;15376;48.540;9.268;2023-11-19T05:27:34;97396.03;;;10.13;100.00
5283;BME280;15376;48.540;9.268;2023-11-19T05:30:00;97393.50;;;10.20;100.00
5283;BME280;15376;48.540;9.268;2023-11-19T05:32:25;97389.34;;;10.17;100.00
5283;BME280;15376;48.540;9.268;2023-11-19T05:34:50;97384.41;;;10.14;100.00
5283;BME280;15376;48.540;9.268;2023-11-19T05:37:16;97384.41;;;10.14;100.00
5283;BME280;15376;48.540;9.268;2023-11-19T05:39:42;97357.50;;;10.02;100.00
5283;BME280;15376;48.540;9.268;2023-11-19T05:42:07;97396.78;;;10.22;100.00
5283;BME280;15376;48.540;9.268;2023-11-19T05:44:32;97397.63;;;10.22;100.00
5283;BME280;15376;48.540;9.268;2023-11-19T05:46:58;97386.28;;;10.28;100.00
5283;BME280;15376;48.540;9.268;2023-11-19T05:49:23;97387.28;;;10.27;100.00
5283;BME280;15376;48.540;9.268;2023-11-19T05:51:48;97388.28;;;10.26;100.00
5283;BME280;15376;48.540;9.268;2023-11-19T05:54:14;97389.03;;;10.20;100.00
5283;BME280;15376;48.540;9.268;2023-11-19T05:56:39;97385.00;;;10.24;100.00
5283;BME280;15376;48.540;9.268;2023-11-19T05:59:04;97385.63;;;10.26;100.00
5283;BME280;15376;48.540;9.268;2023-11-19T06:01:35;97396.44;;;10.25;100.00
5283;BME280;15376;48.540;9.268;2023-11-19T06:04:01;97392.59;;;10.27;100.00
5283;BME280;15376;48.540;9.268;2023-11-19T06:06:28;97388.38;;;10.33;100.00
5283;BME280;15376;48.540;9.268;2023-11-19T06:08:53;97398.91;;;10.26;100.00
5283;BME280;15376;48.540;9.268;2023-11-19T06:11:20;97393.59;;;10.26;100.00
5283;BME280;15376;48.540;9.268;2023-11-19T06:13:46;97398.53;;;10.29;100.00
5283;BME280;15376;48.540;9.268;2023-11-19T06:16:12;97402.31;;;10.35;100.00
5283;BME280;15376;48.540;9.268;2023-11-19T06:18:37;97390.50;;;10.38;100.00
5283;BME280;15376;48.540;9.268;2023-11-19T06:21:03;97384.53;;;10.35;100.00
5283;BME280;15376;48.540;9.268;2023-11-19T06:23:28;97388.09;;;10.43;100.00
5283;BME280;15376;48.540;9.268;2023-11-19T06:25:54;97390.66;;;10.51;100.00
5283;BME280;15376;48.540;9.268;2023-11-19T06:28:19;97383.41;;;10.45;100.00
5283;BME280;15376;48.540;9.268;2023-11-19T06:30:44;97395.88;;;10.59;100.00
5283;BME280;15376;48.540;9.268;2023-11-19T06:33:13;97403.47;;;10.62;100.00
5283;BME280;15376;48.540;9.268;2023-11-19T06:35:38;97392.38;;;10.58;100.00
5283;BME280;15376;48.540;9.268;2023-11-19T06:38:03;97376.22;;;10.39;100.00
5283;BME280;15376;48.540;9.268;2023-11-19T06:40:32;97401.91;;;10.53;100.00
5283;BME280;15376;48.540;9.268;2023-11-19T06:42:58;97402.72;;;10.53;100.00
5283;BME280;15376;48.540;9.268;2023-11-19T06:45:23;97406.84;;;10.56;100.00
5283;BME280;15376;48.540;9.268;2023-11-19T06:47:48;97389.81;;;10.50;100.00
5283;BME280;15376;48.540;9.268;2023-11-19T06:50:14;97403.81;;;10.59;100.00
5283;BME280;15376;48.540;9.268;2023-11-19T06:52:40;97410.16;;;10.58;100.00
5283;BME280;15376;48.540;9.268;2023-11-19T06:55:06;97399.25;;;10.53;100.00
5283;BME280;15376;48.540;9.268;2023-11-19T06:57:31;97424.97;;;10.67;100.00
5283;BME280;15376;48.540;9.268;2023-11-19T06:59:58;97397.97;;;10.49;100.00
5283;BME280;15376;48.540;9.268;2023-11-19T07:02:24;97426.91;;;10.73;100.00
5283;BME280;15376;48.540;9.268;2023-11-19T07:04:49;97426.16;;;10.79;100.00
5283;BME280;15376;48.540;9.268;2023-11-19T07:07:15;97418.78;;;10.81;100.00
5283;BME280;15376;48.540;9.268;2023-11-19T07:09:40;97393.75;;;10.69;100.00
5283;BME280;15376;48.540;9.268;2023-11-19T07:12:06;97421.84;;;10.78;100.00
5283;BME280;15376;48.540;9.268;2023-11-19T07:14:31;97420.03;;;10.79;100.00
5283;BME280;15376;48.540;9.268;2023-11-19T07:16:57;97369.78;;;10.48;100.00
5283;BME280;15376;48.540;9.268;2023-11-19T07:19:22;97404.63;;;10.74;100.00
5283;BME280;15376;48.540;9.268;2023-11-19T07:21:48;97407.81;;;10.84;100.00
5283;BME280;15376;48.540;9.268;2023-11-19T07:24:13;97418.44;;;10.84;100.00
5283;BME280;15376;48.540;9.268;2023-11-19T07:26:46;97413.56;;;10.88;100.00
5283;BME280;15376;48.540;9.268;2023-11-19T07:29:13;97394.47;;;10.78;100.00
5283;BME280;15376;48.540;9.268;2023-11-19T07:31:38;97411.47;;;10.83;100.00
5283;BME280;15376;48.540;9.268;2023-11-19T07:34:04;97420.06;;;10.85;100.00
5283;BME280;15376;48.540;9.268;2023-11-19T07:36:31;97427.84;;;10.87;100.00
5283;BME280;15376;48.540;9.268;2023-11-19T07:38:58;97405.91;;;10.78;100.00
5283;BME280;15376;48.540;9.268;2023-11-19T07:41:23;97425.66;;;10.90;100.00
5283;BME280;15376;48.540;9.268;2023-11-19T07:43:50;97440.22;;;10.94;100.00
5283;BME280;15376;48.540;9.268;2023-11-19T07:46:17;97443.88;;;10.93;100.00
5283;BME280;15376;48.540;9.268;2023-11-19T07:48:45;97429.84;;;10.99;100.00
5283;BME280;15376;48.540;9.268;2023-11-19T07:51:12;97433.06;;;11.10;100.00
5283;BME280;15376;48.540;9.268;2023-11-19T07:53:38;97437.03;;;11.20;100.00
5283;BME280;15376;48.540;9.268;2023-11-19T07:56:04;97443.81;;;11.23;100.00
5283;BME280;15376;48.540;9.268;2023-11-19T07:58:31;97440.22;;;11.30;100.00
5283;BME280;15376;48.540;9.268;2023-11-19T08:00:56;97394.00;;;11.10;100.00
5283;BME280;15376;48.540;9.268;2023-11-19T08:03:21;97410.66;;;11.19;100.00
5283;BME280;15376;48.540;9.268;2023-11-19T08:05:50;97435.78;;;11.38;100.00
5283;BME280;15376;48.540;9.268;2023-11-19T08:08:15;97440.66;;;11.34;100.00
5283;BME280;15376;48.540;9.268;2023-11-19T08:10:41;97438.00;;;11.34;100.00
5283;BME280;15376;48.540;9.268;2023-11-19T08:13:07;97439.09;;;11.40;100.00
5283;BME280;15376;48.540;9.268;2023-11-19T08:15:32;97423.56;;;11.43;100.00
5283;BME280;15376;48.540;9.268;2023-11-19T08:17:58;97427.25;;;11.42;100.00
5283;BME280;15376;48.540;9.268;2023-11-19T08:20:23;97427.31;;;11.49;100.00
5283;BME280;15376;48.540;9.268;2023-11-19T08:22:49;97421.56;;;11.45;100.00
5283;BME280;15376;48.540;9.268;2023-11-19T08:25:14;97421.81;;;11.50;100.00
5283;BME280;15376;48.540;9.268;2023-11-19T08:27:40;97418.19;;;11.58;100.00
5283;BME280;15376;48.540;9.268;2023-11-19T08:30:06;97390.47;;;11.46;100.00
5283;BME280;15376;48.540;9.268;2023-11-19T08:32:32;97406.34;;;11.60;100.00
5283;BME280;15376;48.540;9.268;2023-11-19T08:34:57;97411.81;;;11.52;100.00
5283;BME280;15376;48.540;9.268;2023-11-19T08:37:22;97418.00;;;11.59;100.00
5283;BME280;15376;48.540;9.268;2023-11-19T08:39:48;97421.53;;;11.66;100.00
5283;BME280;15376;48.540;9.268;2023-11-19T08:42:14;97424.06;;;11.75;100.00
5283;BME280;15376;48.540;9.268;2023-11-19T08:44:40;97417.25;;;11.87;100.00
5283;BME280;15376;48.540;9.268;2023-11-19T08:47:08;97424.94;;;12.03;100.00
5283;BME280;15376;48.540;9.268;2023-11-19T08:49:34;97419.28;;;12.13;100.00
5283;BME280;15376;48.540;9.268;2023-11-19T08:52:00;97416.47;;;12.21;100.00
5283;BME280;15376;48.540;9.268;2023-11-19T08:54:25;97411.56;;;12.24;100.00
5283;BME280;15376;48.540;9.268;2023-11-19T08:56:50;97414.88;;;12.26;100.00
5283;BME280;15376;48.540;9.268;2023-11-19T08:59:16;97420.25;;;12.33;100.00
5283;BME280;15376;48.540;9.268;2023-11-19T09:01:41;97425.44;;;12.48;100.00
5283;BME280;15376;48.540;9.268;2023-11-19T09:04:07;97417.91;;;12.58;100.00
5283;BME280;15376;48.540;9.268;2023-11-19T09:06:32;97421.59;;;12.57;100.00
5283;BME280;15376;48.540;9.268;2023-11-19T09:08:58;97417.66;;;12.53;100.00
5283;BME280;15376;48.540;9.268;2023-11-19T09:11:27;97412.16;;;12.54;100.00
5283;BME280;15376;48.540;9.268;2023-11-19T09:13:52;97423.22;;;12.58;100.00
5283;BME280;15376;48.540;9.268;2023-11-19T09:16:18;97391.19;;;12.45;100.00
5283;BME280;15376;48.540;9.268;2023-11-19T09:18:43;97423.75;;;12.75;100.00
5283;BME280;15376;48.540;9.268;2023-11-19T09:21:11;97422.91;;;12.81;100.00
5283;BME280;15376;48.540;9.268;2023-11-19T09:23:36;97433.41;;;12.89;100.00
5283;BME280;15376;48.540;9.268;2023-11-19T09:26:05;97423.41;;;12.97;100.00
5283;BME280;15376;48.540;9.268;2023-11-19T09:28:30;97429.38;;;12.99;100.00
5283;BME280;15376;48.540;9.268;2023-11-19T09:30:56;97380.88;;;12.69;100.00
5283;BME280;15376;48.540;9.268;2023-11-19T09:33:21;97432.03;;;12.99;100.00
5283;BME280;15376;48.540;9.268;2023-11-19T09:35:47;97431.81;;;12.94;100.00
5283;BME280;15376;48.540;9.268;2023-11-19T09:38:14;97426.88;;;12.91;100.00
5283;BME280;15376;48.540;9.268;2023-11-19T09:40:42;97405.50;;;12.78;100.00
5283;BME280;15376;48.540;9.268;2023-11-19T09:43:08;97447.41;;;12.97;100.00
5283;BME280;15376;48.540;9.268;2023-11-19T09:45:48;97422.09;;;12.80;100.00
5283;BME280;15376;48.540;9.268;2023-11-19T09:48:16;97433.44;;;12.95;100.00
5283;BME280;15376;48.540;9.268;2023-11-19T09:50:42;97426.63;;;12.86;100.00
5283;BME280;15376;48.540;9.268;2023-11-19T09:53:08;97438.53;;;12.90;100.00
5283;BME280;15376;48.540;9.268;2023-11-19T09:55:34;97448.59;;;12.88;100.00
5283;BME280;15376;48.540;9.268;2023-11-19T09:58:00;97436.75;;;12.97;100.00
5283;BME280;15376;48.540;9.268;2023-11-19T10:00:27;97441.16;;;13.18;100.00
5283;BME280;15376;48.540;9.268;2023-11-19T10:02:53;97430.53;;;13.38;100.00
5283;BME280;15376;48.540;9.268;2023-11-19T10:05:20;97392.53;;;13.23;100.00
5283;BME280;15376;48.540;9.268;2023-11-19T10:07:47;97422.94;;;13.35;100.00
5283;BME280;15376;48.540;9.268;2023-11-19T10:10:12;97429.28;;;13.27;100.00
5283;BME280;15376;48.540;9.268;2023-11-19T10:12:43;97423.09;;;13.20;100.00
5283;BME280;15376;48.540;9.268;2023-11-19T10:15:24;97403.78;;;13.12;100.00
5283;BME280;15376;48.540;9.268;2023-11-19T10:17:55;97407.16;;;13.47;100.00
5283;BME280;15376;48.540;9.268;2023-11-19T10:20:21;97382.94;;;13.48;100.00
5283;BME280;15376;48.540;9.268;2023-11-19T10:22:47;97374.94;;;13.61;100.00
5283;BME280;15376;48.540;9.268;2023-11-19T10:25:25;97407.97;;;14.00;100.00
5283;BME280;15376;48.540;9.268;2023-11-19T10:27:51;97416.19;;;14.05;100.00
5283;BME280;15376;48.540;9.268;2023-11-19T10:30:24;97414.75;;;14.16;100.00
5283;BME280;15376;48.540;9.268;2023-11-19T10:35:33;97406.75;;;14.09;100.00
5283;BME280;15376;48.540;9.268;2023-11-19T10:38:00;97406.97;;;14.01;100.00
5283;BME280;15376;48.540;9.268;2023-11-19T10:40:38;97396.91;;;13.77;100.00
5283;BME280;15376;48.540;9.268;2023-11-19T10:43:05;97407.19;;;13.73;100.00
5283;BME280;15376;48.540;9.268;2023-11-19T10:45:33;97351.75;;;13.42;100.00
5283;BME280;15376;48.540;9.268;2023-11-19T10:47:59;97404.53;;;13.86;100.00
5283;BME280;15376;48.540;9.268;2023-11-19T10:50:25;97393.59;;;14.01;100.00
5283;BME280;15376;48.540;9.268;2023-11-19T10:52:56;97378.25;;;13.90;100.00
5283;BME280;15376;48.540;9.268;2023-11-19T10:55:27;97396.09;;;13.96;100.00
5283;BME280;15376;48.540;9.268;2023-11-19T10:57:52;97395.50;;;13.94;100.00
5283;BME280;15376;48.540;9.268;2023-11-19T11:00:22;97383.75;;;14.01;100.00
5283;BME280;15376;48.540;9.268;2023-11-19T11:02:50;97375.31;;;14.24;100.00
5283;BME280;15376;48.540;9.268;2023-11-19T11:05:21;97373.03;;;14.34;100.00
5283;BME280;15376;48.540;9.268;2023-11-19T11:07:48;97373.03;;;14.34;100.00
5283;BME280;15376;48.540;9.268;2023-11-19T11:10:16;97279.91;;;13.74;100.00
5283;BME280;15376;48.540;9.268;2023-11-19T11:12:41;97374.06;;;14.33;100.00
5283;BME280;15376;48.540;9.268;2023-11-19T11:15:11;97379.59;;;14.39;100.00
5283;BME280;15376;48.540;9.268;2023-11-19T11:17:41;97338.56;;;14.13;100.00
5283;BME280;15376;48.540;9.268;2023-11-19T11:20:08;97363.59;;;14.32;100.00
5283;BME280;15376;48.540;9.268;2023-11-19T11:22:44;97370.53;;;14.40;100.00
5283;BME280;15376;48.540;9.268;2023-11-19T11:25:38;97368.91;;;14.39;100.00
5283;BME280;15376;48.540;9.268;2023-11-19T11:28:21;97350.63;;;14.35;100.00
5283;BME280;15376;48.540;9.268;2023-11-19T11:39:21;97340.84;;;14.74;100.00
5283;BME280;15376;48.540;9.268;2023-11-19T11:41:47;97369.88;;;15.09;100.00
5283;BME280;15376;48.540;9.268;2023-11-19T11:44:12;97369.09;;;15.01;100.00
5283;BME280;15376;48.540;9.268;2023-11-19T11:49:06;97377.19;;;15.20;100.00
5283;BME280;15376;48.540;9.268;2023-11-19T11:57:13;97360.41;;;15.13;100.00
5283;BME280;15376;48.540;9.268;2023-11-19T12:02:11;97358.75;;;15.12;100.00
5283;BME280;15376;48.540;9.268;2023-11-19T12:04:37;97339.09;;;14.93;100.00
5283;BME280;15376;48.540;9.268;2023-11-19T12:07:09;97374.00;;;15.05;100.00
5283;BME280;15376;48.540;9.268;2023-11-19T12:09:40;97352.69;;;14.91;100.00
5283;BME280;15376;48.540;9.268;2023-11-19T12:12:26;97343.88;;;14.84;100.00
5283;BME280;15376;48.540;9.268;2023-11-19T12:20:02;97349.31;;;14.64;100.00
5283;BME280;15376;48.540;9.268;2023-11-19T12:22:30;97356.91;;;14.74;100.00
5283;BME280;15376;48.540;9.268;2023-11-19T12:24:56;97351.97;;;14.71;100.00
5283;BME280;15376;48.540;9.268;2023-11-19T12:27:21;97357.34;;;14.64;100.00
5283;BME280;15376;48.540;9.268;2023-11-19T12:29:50;97355.91;;;14.62;100.00
5283;BME280;15376;48.540;9.268;2023-11-19T12:32:15;97346.22;;;14.67;100.00
5283;BME280;15376;48.540;9.268;2023-11-19T12:34:41;97306.81;;;14.50;100.00
5283;BME280;15376;48.540;9.268;2023-11-19T12:37:07;97337.47;;;14.85;100.00
5283;BME280;15376;48.540;9.268;2023-11-19T12:39:35;97334.09;;;15.03;100.00
5283;BME280;15376;48.540;9.268;2023-11-19T12:42:00;97345.50;;;14.85;100.00
5283;BME280;15376;48.540;9.268;2023-11-19T12:44:26;97346.19;;;14.74;100.00
5283;BME280;15376;48.540;9.268;2023-11-19T12:47:04;97320.91;;;14.70;100.00
5283;BME280;15376;48.540;9.268;2023-11-19T12:49:31;97307.81;;;14.55;100.00
5283;BME280;15376;48.540;9.268;2023-11-19T12:51:57;97342.84;;;14.85;100.00
5283;BME280;15376;48.540;9.268;2023-11-19T12:54:35;97338.63;;;15.02;100.00
5283;BME280;15376;48.540;9.268;2023-11-19T12:57:02;97327.72;;;15.04;100.00
5283;BME280;15376;48.540;9.268;2023-11-19T12:59:27;97322.16;;;15.06;100.00
5283;BME280;15376;48.540;9.268;2023-11-19T13:01:59;97306.22;;;14.86;100.00
5283;BME280;15376;48.540;9.268;2023-11-19T13:04:29;97305.06;;;14.75;100.00
5283;BME280;15376;48.540;9.268;2023-11-19T13:06:56;97303.94;;;14.89;100.00
5283;BME280;15376;48.540;9.268;2023-11-19T13:09:26;97312.00;;;14.83;100.00
5283;BME280;15376;48.540;9.268;2023-11-19T13:11:52;97305.06;;;14.75;100.00
5283;BME280;15376;48.540;9.268;2023-11-19T13:14:18;97307.13;;;14.73;100.00
5283;BME280;15376;48.540;9.268;2023-11-19T13:16:44;97236.13;;;14.46;100.00
5283;BME280;15376;48.540;9.268;2023-11-19T13:19:13;97310.03;;;14.72;100.00
5283;BME280;15376;48.540;9.268;2023-11-19T13:21:40;97272.28;;;14.48;100.00
5283;BME280;15376;48.540;9.268;2023-11-19T13:24:06;97291.59;;;14.50;100.00
5283;BME280;15376;48.540;9.268;2023-11-19T13:26:32;97280.09;;;14.50;100.00
5283;BME280;15376;48.540;9.268;2023-11-19T13:28:57;97295.72;;;14.53;100.00